Historyczne dane pomiarowe

Dodano dane terminowe – wersja testowa.

Dane z okresu 1951-2019

Wersja bazy: 1.34 [2019-03-16, lista zmian], aktualizacja planowana na 2019-04-15

Dane meteo z obszaru Polski uzyskane na podstawie danych udostępnionych przez Instytut Meteorologii i Gospodarki Wodnej – Państwowy Instytut Badawczy.

 

Wybierz Datę:    

       

TemperaturaWilgotnośćWiatrCiśnienieOpadyŚniegCzas trwania zjawisk
 Stacja t tx tn tng RH VA  wxwx mslp ppp RRR   cm mm wxwxwxwxwxwxwx
1994-08-14 13.7 17.0 11.0--- 2.7 3.7---- 0.0------------
1994-08-13 16.7 21.8 14.5--- 6.3 4.0---- 0.0------------
1994-08-12 16.7 21.2 15.3--- 8.0 1.7---- 7.0------------
1994-08-11 16.4 20.0 13.0--- 7.3 1.3---- 7.1------------
1994-08-10 19.2 25.0 13.0--- 3.0 2.0---- 4.5------------
1994-08-09 18.9 25.0 18.0--- 7.3 1.7---- 8.8------------
1994-08-08 22.0 26.6 18.5--- 6.0 1.3---- 17.5------------
1994-08-07 24.9 31.5 19.0--- 4.7 2.0---- 7.1------------
1994-08-06 25.3 35.0 16.0--- 4.7 2.0---- 0.0------------
1994-08-05 25.2 32.0 16.0--- 3.0 2.0---- 0.0------------
1994-08-04 22.7 30.0 18.0--- 6.3 2.0---- 4.5------------
1994-08-03 25.8 31.5 20.8--- 5.7 1.7---- 0.0------------
1994-08-02 26.2 35.0 19.9--- 6.7 2.0---- 0.0------------
1994-08-01 27.7 35.5 18.0--- 3.7 2.3---- 0.2------------
1994-07-31 27.8 35.0 17.0--- 0.0 2.3---- 0.0------------
1994-07-30 27.7 35.0 18.5--- 1.3 1.7---- 0.0------------
1994-07-29 27.3 34.5 17.2--- 2.0 1.3---- 0.0------------
1994-07-28 26.1 33.2 16.3--- 1.3 1.0---- 0.0------------
1994-07-27 26.5 33.7 16.0--- 2.7 1.7---- 0.0------------
1994-07-26 25.7 32.8 16.0--- 2.0 1.7---- 0.0------------
1994-07-25 21.7 31.6 14.3--- 1.3 1.3---- 0.0------------
1994-07-24 22.7 29.8 14.0--- 1.7 1.7---- 0.0------------
1994-07-23 22.2 28.5 13.0--- 2.0 1.3---- 0.0------------
1994-07-22 21.5 28.4 11.8--- 0.7 1.7---- 0.0------------
1994-07-21 20.0 26.8 12.0--- 1.0 1.0---- 0.0------------
1994-07-20 18.8 24.0 12.8--- 2.3 1.7---- 0.0------------
1994-07-19 19.1 24.0 14.0--- 4.7 1.0---- 0.0------------
1994-07-18 21.1 25.6 15.0--- 3.3 1.7---- 0.0------------
1994-07-17 20.4 28.0 16.7--- 6.7 1.7---- 14.2------------
1994-07-16 22.0 30.2 16.2--- 5.7 1.7---- 8.2------------
1994-07-15 23.8 28.9 15.5--- 4.0 1.7---- 0.0------------
1994-07-14 23.7 29.5 15.5--- 5.0 1.3---- 0.0------------
1994-07-13 22.2 29.2 15.5--- 3.3 2.3---- 0.0------------
1994-07-12 21.4 27.0 15.8--- 5.0 2.0---- 0.0------------
1994-07-11 19.5 26.0 13.2--- 5.3 2.0---- 0.0------------
1994-07-10 16.0 20.0 13.0--- 6.3 2.7---- 0.0------------
1994-07-09 14.2 17.0 13.0--- 8.0 2.7---- 26.5------------
1994-07-08 17.0 21.0 13.5--- 7.0 3.3---- 1.4------------
1994-07-07 19.5 26.2 12.0--- 6.7 1.7---- 2.5------------
1994-07-06 20.4 25.1 12.0--- 4.3 1.3---- 0.0------------
1994-07-05 20.3 28.1 14.9--- 2.7 1.3---- 0.1------------
1994-07-04 23.0 32.0 12.0--- 0.7 1.7---- 0.0------------
1994-07-03 20.5 27.5 9.8--- 0.0 2.0---- 0.0------------
1994-07-02 19.9 26.0 10.5--- 0.7 1.7---- 0.0------------
1994-07-01 18.4 24.0 12.0--- 1.3 2.0---- 0.0------------
1994-06-30 22.1 29.0 20.0--- 5.3 2.7---- 0.0------------
1994-06-29 24.8 31.5 17.4--- 3.7 1.7---- 0.0------------
1994-06-28 26.6 31.5 20.3--- 4.7 1.3---- 0.0------------
1994-06-27 27.4 33.2 18.0--- 1.7 1.7---- 0.0------------
1994-06-26 21.1 29.5 10.0--- 1.0 1.7---- 0.0------------
1994-06-25 16.0 23.0 4.0--- 0.0 2.0---- 0.0------------
1994-06-24 13.8 20.0 7.1--- 0.7 3.3---- 0.0------------
1994-06-23 17.2 21.4 15.6--- 3.3 4.3---- 0.0------------
1994-06-22 18.6 25.8 10.0--- 6.7 3.3---- 0.0------------
1994-06-21 15.3 21.2 8.0--- 3.0 2.0---- 0.0------------
1994-06-20 15.6 24.0 12.0--- 5.7 2.7---- 0.0------------
1994-06-19 17.4 24.0 11.0--- 5.3 2.7---- 0.0------------
1994-06-18 13.2 18.5 5.0--- 6.7 2.7---- 8.0------------
1994-06-17 10.7 14.0 7.8--- 6.3 3.0---- 0.0------------
1994-06-16 11.0 14.1 6.8--- 6.3 2.3---- 6.2------------
255.9 ms

 

Źródłem pochodzenia danych jest Instytut Meteorologii i Gospodarki Wodnej – Państwowy Instytut Badawczy. Dane Instytutu Meteorologii i Gospodarki Wodnej – Państwowego Instytutu Badawczego zostały przetworzone.

Dane źródłowe można odnaleźć na stronie https://dane.imgw.pl